Time;durP1;ratioP1;P1;durP2;ratioP2;P2;SDS_P1;SDS_P2;PMS_P1;PMS_P2;Temp;Humidity;BMP_temperature;BMP_pressure;BME280_temperature;BME280_humidity;BME280_pressure;Samples;Min_cycle;Max_cycle;Signal;HPM_P1;HPM_P2
2021/10/24 00:01:03;;;;;;;18.00;3.45;;;7.70;99.90;;;;;;5053234;28;20031;-73
2021/10/24 00:03:29;;;;;;;19.15;3.55;;;7.70;99.90;;;;;;5052722;28;20029;-73
2021/10/24 00:05:55;;;;;;;20.77;3.70;;;7.70;99.90;;;;;;5053534;28;20116;-73
2021/10/24 00:08:21;;;;;;;24.65;3.97;;;7.70;99.90;;;;;;5053158;28;20104;-73
2021/10/24 00:10:46;;;;;;;20.70;3.67;;;7.80;99.90;;;;;;5053351;28;20033;-72
2021/10/24 00:13:12;;;;;;;13.70;3.50;;;7.80;99.90;;;;;;5053351;28;20488;-73
2021/10/24 00:15:38;;;;;;;11.55;3.55;;;7.80;99.90;;;;;;5052356;28;20146;-72
2021/10/24 00:18:04;;;;;;;11.90;3.53;;;7.80;99.90;;;;;;5052698;28;20036;-72
2021/10/24 00:20:29;;;;;;;25.35;4.53;;;7.80;99.90;;;;;;5035332;28;20029;-72
2021/10/24 00:22:55;;;;;;;13.43;3.22;;;7.90;99.90;;;;;;5052802;28;20040;-72
2021/10/24 00:25:21;;;;;;;24.35;3.97;;;7.90;99.90;;;;;;5052716;28;20446;-72
2021/10/24 00:27:46;;;;;;;15.07;3.92;;;7.90;99.90;;;;;;5052944;28;20476;-72
2021/10/24 00:30:12;;;;;;;18.42;3.70;;;7.90;99.90;;;;;;5053191;28;20048;-72
2021/10/24 00:32:37;;;;;;;11.88;3.50;;;7.90;99.90;;;;;;5052766;28;20025;-72
2021/10/24 00:35:04;;;;;;;13.32;4.07;;;7.90;99.90;;;;;;5051859;28;20028;-72
2021/10/24 00:37:30;;;;;;;24.75;4.72;;;7.80;99.90;;;;;;5052289;28;20065;-72
2021/10/24 00:39:55;;;;;;;17.35;3.80;;;7.80;99.90;;;;;;5052689;28;20029;-72
2021/10/24 00:42:21;;;;;;;14.13;3.55;;;7.80;99.90;;;;;;5052849;28;20025;-72
2021/10/24 00:44:46;;;;;;;12.80;3.88;;;7.80;99.90;;;;;;5052991;28;20059;-73
2021/10/24 00:47:13;;;;;;;19.48;4.15;;;7.80;99.90;;;;;;5052702;28;20078;-72
2021/10/24 00:49:39;;;;;;;16.23;4.03;;;7.80;99.90;;;;;;5052280;28;20021;-72
2021/10/24 00:52:05;;;;;;;16.55;4.18;;;7.70;99.90;;;;;;5052569;28;20473;-72
2021/10/24 00:54:33;;;;;;;22.00;4.15;;;7.80;99.90;;;;;;5052842;28;20079;-72
2021/10/24 00:57:01;;;;;;;18.42;4.05;;;7.70;99.90;;;;;;5052536;28;20025;-72
2021/10/24 00:59:27;;;;;;;26.42;4.63;;;7.70;99.90;;;;;;5052311;28;20053;-72
2021/10/24 01:01:54;;;;;;;18.95;4.93;;;7.70;99.90;;;;;;5052466;28;20104;-72
2021/10/24 01:04:20;;;;;;;19.70;4.00;;;7.70;99.90;;;;;;5053120;28;20064;-72
2021/10/24 01:06:50;;;;;;;23.73;4.50;;;7.70;99.90;;;;;;5050855;28;20029;-72
2021/10/24 01:09:17;;;;;;;21.67;5.00;;;7.80;99.90;;;;;;5034330;28;20028;-72
2021/10/24 01:11:44;;;;;;;14.60;4.45;;;7.80;99.90;;;;;;5050935;28;20040;-72
2021/10/24 01:14:11;;;;;;;17.38;4.50;;;7.80;99.90;;;;;;5053037;28;20028;-72
2021/10/24 01:16:39;;;;;;;14.55;4.15;;;7.70;99.90;;;;;;5051761;28;20021;-72
2021/10/24 01:19:06;;;;;;;22.13;5.00;;;7.80;99.90;;;;;;5052731;28;20021;-73
2021/10/24 01:21:32;;;;;;;13.48;4.68;;;7.80;99.90;;;;;;5052316;28;20123;-72
2021/10/24 01:23:58;;;;;;;15.65;4.95;;;7.80;99.90;;;;;;5052975;28;20037;-72
2021/10/24 01:26:24;;;;;;;13.25;4.85;;;7.80;99.90;;;;;;5051768;28;20144;-72
2021/10/24 01:28:50;;;;;;;22.92;5.55;;;7.80;99.90;;;;;;5055913;28;20017;-72
2021/10/24 01:31:15;;;;;;;16.83;5.38;;;7.80;99.90;;;;;;5056321;28;20036;-72
2021/10/24 01:33:41;;;;;;;16.27;4.88;;;7.90;99.90;;;;;;5055143;28;20020;-72
2021/10/24 01:36:09;;;;;;;17.77;5.32;;;7.90;99.90;;;;;;5055750;28;20041;-72
2021/10/24 01:38:36;;;;;;;20.50;5.43;;;7.90;99.90;;;;;;5054405;28;20476;-72
2021/10/24 01:41:05;;;;;;;23.73;5.45;;;7.90;99.90;;;;;;5055693;28;20646;-72
2021/10/24 01:43:31;;;;;;;23.15;5.80;;;7.90;99.90;;;;;;5056222;28;20078;-72
2021/10/24 01:45:56;;;;;;;27.48;6.57;;;7.90;99.90;;;;;;5055658;28;20036;-72
2021/10/24 01:48:23;;;;;;;17.45;5.43;;;7.90;99.90;;;;;;5055757;28;20064;-72
2021/10/24 01:50:50;;;;;;;23.95;4.80;;;7.90;99.90;;;;;;5056017;28;20045;-72
2021/10/24 01:53:20;;;;;;;24.85;6.63;;;7.90;99.90;;;;;;5055352;28;20025;-72
2021/10/24 01:55:46;;;;;;;26.40;6.78;;;8.00;99.90;;;;;;5055162;28;20059;-72
2021/10/24 01:58:12;;;;;;;17.27;5.45;;;8.00;99.90;;;;;;5055951;28;20033;-72
2021/10/24 02:00:40;;;;;;;13.98;5.97;;;7.90;99.90;;;;;;5055865;28;20025;-72
2021/10/24 02:03:05;;;;;;;13.98;4.70;;;8.00;99.90;;;;;;5055349;28;20028;-72
2021/10/24 02:05:31;;;;;;;24.58;5.60;;;7.90;99.90;;;;;;5055460;28;20020;-72
2021/10/24 02:07:56;;;;;;;23.00;5.93;;;7.90;99.90;;;;;;5055976;28;20040;-72
2021/10/24 02:10:22;;;;;;;23.77;6.47;;;7.90;99.90;;;;;;5055703;28;20078;-72
2021/10/24 02:12:48;;;;;;;13.23;4.93;;;7.90;99.90;;;;;;5055469;28;20110;-72
2021/10/24 02:15:14;;;;;;;19.42;5.50;;;7.90;99.90;;;;;;5055254;28;20032;-72
2021/10/24 02:17:40;;;;;;;23.35;5.15;;;7.90;99.90;;;;;;5055189;28;20126;-72
2021/10/24 02:20:06;;;;;;;20.42;5.75;;;7.90;99.90;;;;;;5055192;28;20488;-72
2021/10/24 02:22:32;;;;;;;27.65;6.18;;;8.00;99.90;;;;;;5055440;28;20025;-72
2021/10/24 02:24:58;;;;;;;14.25;5.57;;;8.00;99.90;;;;;;5055059;28;20032;-72
2021/10/24 02:27:24;;;;;;;17.60;5.50;;;8.00;99.90;;;;;;5055320;28;20460;-72
2021/10/24 02:29:49;;;;;;;22.85;5.82;;;8.00;99.90;;;;;;5054747;28;20050;-72
2021/10/24 02:32:15;;;;;;;22.05;5.43;;;7.90;99.90;;;;;;5055199;28;20028;-72
2021/10/24 02:34:41;;;;;;;22.25;5.78;;;7.90;99.90;;;;;;5054987;28;20021;-72
2021/10/24 02:37:07;;;;;;;21.65;6.32;;;7.90;99.90;;;;;;5055453;28;20028;-72
2021/10/24 02:39:34;;;;;;;25.65;5.55;;;7.90;99.90;;;;;;5054105;28;20029;-72
2021/10/24 02:41:59;;;;;;;11.73;5.03;;;7.90;99.90;;;;;;5054554;28;20030;-72
2021/10/24 02:44:25;;;;;;;18.17;5.50;;;7.90;99.90;;;;;;5055148;28;20028;-72
2021/10/24 02:46:52;;;;;;;25.42;6.53;;;7.90;99.90;;;;;;5054691;28;20396;-72
2021/10/24 02:49:18;;;;;;;19.38;6.13;;;7.90;99.90;;;;;;5055183;28;20071;-72
2021/10/24 02:51:44;;;;;;;23.63;6.28;;;7.80;99.90;;;;;;5053926;28;20029;-72
2021/10/24 02:54:10;;;;;;;16.45;5.97;;;7.90;99.90;;;;;;5054807;28;20021;-73
2021/10/24 02:56:35;;;;;;;23.05;6.22;;;7.90;99.90;;;;;;5053173;28;20025;-72
2021/10/24 02:59:01;;;;;;;23.30;5.68;;;7.80;99.90;;;;;;5054769;28;20025;-72
2021/10/24 03:01:27;;;;;;;12.25;5.10;;;7.90;99.90;;;;;;5054305;28;20040;-72
2021/10/24 03:03:52;;;;;;;26.65;6.18;;;7.90;99.90;;;;;;5054356;28;20048;-72
2021/10/24 03:06:18;;;;;;;20.25;5.80;;;7.90;99.90;;;;;;5053393;28;20033;-72
2021/10/24 03:08:43;;;;;;;17.90;5.85;;;7.90;99.90;;;;;;5053790;28;20468;-73
2021/10/24 03:11:09;;;;;;;27.85;7.05;;;7.80;99.90;;;;;;5054468;28;20393;-72
2021/10/24 03:13:35;;;;;;;25.10;6.85;;;7.90;99.90;;;;;;5054213;28;20104;-72
2021/10/24 03:16:01;;;;;;;18.05;6.85;;;7.90;99.90;;;;;;5053749;28;20425;-72
2021/10/24 03:18:26;;;;;;;15.30;5.65;;;7.90;99.90;;;;;;5054073;28;20496;-72
2021/10/24 03:20:52;;;;;;;18.52;6.80;;;7.90;99.90;;;;;;5036342;28;20028;-72
2021/10/24 03:23:17;;;;;;;23.65;6.35;;;7.90;99.90;;;;;;5054042;28;20033;-72
2021/10/24 03:25:44;;;;;;;27.83;6.68;;;7.90;99.90;;;;;;5052582;28;20029;-72
2021/10/24 03:28:09;;;;;;;21.40;6.40;;;7.90;99.90;;;;;;5053849;28;20171;-72
2021/10/24 03:30:35;;;;;;;19.85;7.70;;;7.90;99.90;;;;;;5054116;28;20053;-72
2021/10/24 03:33:01;;;;;;;29.40;6.82;;;7.90;99.90;;;;;;5053790;28;20017;-72
2021/10/24 03:35:26;;;;;;;28.77;7.07;;;7.90;99.90;;;;;;5052827;28;20021;-72
2021/10/24 03:37:52;;;;;;;24.10;8.07;;;7.90;99.90;;;;;;5053113;28;20029;-72
2021/10/24 03:40:17;;;;;;;26.30;6.50;;;7.90;99.90;;;;;;5053995;28;20025;-72
2021/10/24 03:42:43;;;;;;;19.17;7.60;;;7.90;99.90;;;;;;5053530;28;20025;-72
2021/10/24 03:45:09;;;;;;;23.02;8.05;;;7.90;99.90;;;;;;5053899;28;20025;-72
2021/10/24 03:47:35;;;;;;;17.45;7.40;;;7.90;99.90;;;;;;5052834;28;20025;-72
2021/10/24 03:50:01;;;;;;;21.40;6.90;;;7.90;99.90;;;;;;5053514;28;20025;-72
2021/10/24 03:52:26;;;;;;;35.13;8.63;;;7.90;99.90;;;;;;5052752;28;20033;-72
2021/10/24 03:54:52;;;;;;;21.77;7.65;;;7.90;99.90;;;;;;5052689;28;20420;-72
2021/10/24 03:57:19;;;;;;;22.05;9.07;;;7.90;99.90;;;;;;5052376;28;20017;-72
2021/10/24 03:59:45;;;;;;;26.75;9.02;;;7.90;99.90;;;;;;5052065;28;20032;-72
2021/10/24 04:02:10;;;;;;;22.10;8.55;;;7.90;99.90;;;;;;5053836;28;20021;-72
2021/10/24 04:04:37;;;;;;;31.70;8.73;;;7.90;99.90;;;;;;5053564;28;20468;-72
2021/10/24 04:07:03;;;;;;;25.90;9.25;;;7.90;99.90;;;;;;5054041;28;20032;-72
2021/10/24 04:09:28;;;;;;;22.38;9.55;;;7.90;99.90;;;;;;5052303;28;20029;-72
2021/10/24 04:11:54;;;;;;;20.80;9.32;;;7.90;99.90;;;;;;5053271;28;20396;-72
2021/10/24 04:14:19;;;;;;;28.15;10.40;;;7.90;99.90;;;;;;5051737;28;20025;-72
2021/10/24 04:16:45;;;;;;;25.38;9.30;;;7.90;99.90;;;;;;5053254;28;20061;-72
2021/10/24 04:19:10;;;;;;;26.33;9.75;;;7.80;99.90;;;;;;5052759;28;20025;-72
2021/10/24 04:21:36;;;;;;;36.00;10.57;;;7.90;99.90;;;;;;5053255;28;20025;-72
2021/10/24 04:24:02;;;;;;;26.08;10.68;;;7.90;99.90;;;;;;5052902;28;20053;-72
2021/10/24 04:26:27;;;;;;;31.98;10.25;;;7.80;99.90;;;;;;5052587;28;20029;-72
2021/10/24 04:28:53;;;;;;;21.85;10.00;;;7.90;99.90;;;;;;5053144;28;20107;-72
2021/10/24 04:31:19;;;;;;;30.58;10.63;;;7.90;99.90;;;;;;5052783;28;20391;-72
2021/10/24 04:33:45;;;;;;;35.15;11.32;;;7.90;99.90;;;;;;5051536;28;20627;-72
2021/10/24 04:36:11;;;;;;;34.35;11.73;;;7.90;99.90;;;;;;5035000;28;20071;-72
2021/10/24 04:38:36;;;;;;;28.70;11.63;;;7.90;99.90;;;;;;5052490;28;20029;-72
2021/10/24 04:41:02;;;;;;;34.60;11.80;;;7.80;99.90;;;;;;5052923;28;20033;-72
2021/10/24 04:43:28;;;;;;;27.70;10.55;;;7.80;99.90;;;;;;5052509;28;20037;-72
2021/10/24 04:45:55;;;;;;;26.65;10.68;;;7.80;99.90;;;;;;5052432;28;20036;-72
2021/10/24 04:48:21;;;;;;;38.58;11.57;;;7.80;99.90;;;;;;5052911;28;20021;-72
2021/10/24 04:50:46;;;;;;;36.10;12.75;;;7.80;99.90;;;;;;5052942;28;20037;-72
2021/10/24 04:53:12;;;;;;;35.30;12.00;;;7.80;99.90;;;;;;5052586;28;20021;-72
2021/10/24 04:55:38;;;;;;;23.92;11.32;;;7.80;99.90;;;;;;5052865;28;20054;-72
2021/10/24 04:58:04;;;;;;;39.08;12.00;;;7.80;99.90;;;;;;5052778;28;20032;-72
2021/10/24 05:00:30;;;;;;;27.23;10.50;;;7.90;99.90;;;;;;5051955;28;20033;-72
2021/10/24 05:02:58;;;;;;;32.33;12.13;;;7.80;99.90;;;;;;5054955;28;20036;-72
2021/10/24 05:05:25;;;;;;;41.60;12.63;;;7.80;99.90;;;;;;5057062;28;20032;-72
2021/10/24 05:07:50;;;;;;;34.80;12.18;;;7.80;99.90;;;;;;5056887;28;20065;-72
2021/10/24 05:10:16;;;;;;;34.05;12.80;;;7.80;99.90;;;;;;5055723;28;20072;-72
2021/10/24 05:12:41;;;;;;;30.23;12.57;;;7.90;99.90;;;;;;5056679;28;20220;-72
2021/10/24 05:15:07;;;;;;;27.42;11.52;;;7.90;99.90;;;;;;5055110;28;20029;-72
2021/10/24 05:17:33;;;;;;;35.72;12.23;;;7.90;99.90;;;;;;5055420;28;20373;-73
2021/10/24 05:19:58;;;;;;;34.78;11.45;;;7.90;99.90;;;;;;5056156;28;20083;-72
2021/10/24 05:22:24;;;;;;;23.13;11.90;;;7.90;99.90;;;;;;5056270;28;20488;-72
2021/10/24 05:24:49;;;;;;;34.20;11.48;;;7.80;99.90;;;;;;5056487;28;20025;-72
2021/10/24 05:27:15;;;;;;;33.63;12.07;;;7.90;99.90;;;;;;5055822;28;20087;-72
2021/10/24 05:29:41;;;;;;;31.65;12.05;;;7.90;99.90;;;;;;5056413;28;20025;-72
2021/10/24 05:32:06;;;;;;;28.10;12.40;;;7.90;99.90;;;;;;5056409;28;20023;-72
2021/10/24 05:34:32;;;;;;;34.90;12.13;;;7.80;99.90;;;;;;5055630;28;20048;-72
2021/10/24 05:36:58;;;;;;;27.45;12.10;;;7.80;99.90;;;;;;5056010;28;20025;-72
2021/10/24 05:39:23;;;;;;;21.23;11.25;;;7.80;99.90;;;;;;5056402;28;20037;-72
2021/10/24 05:41:49;;;;;;;27.92;11.60;;;7.80;99.90;;;;;;5055899;28;20070;-72
2021/10/24 05:44:19;;;;;;;30.23;12.02;;;7.80;99.90;;;;;;5055894;28;20021;-72
2021/10/24 05:46:48;;;;;;;27.52;11.35;;;7.80;99.90;;;;;;5056022;28;20033;-72
2021/10/24 05:49:15;;;;;;;26.08;12.38;;;7.80;99.90;;;;;;5056069;28;20472;-72
2021/10/24 05:51:41;;;;;;;22.02;11.10;;;7.80;99.90;;;;;;5055739;28;20040;-72
2021/10/24 05:54:06;;;;;;;38.28;13.20;;;7.80;99.90;;;;;;5055708;28;20021;-72
2021/10/24 05:56:32;;;;;;;39.92;12.30;;;7.90;99.90;;;;;;5055044;28;20029;-72
2021/10/24 05:58:58;;;;;;;27.98;12.30;;;7.90;99.90;;;;;;5054604;28;20025;-72
2021/10/24 06:01:23;;;;;;;32.03;13.07;;;7.80;99.90;;;;;;5056146;28;20104;-73
2021/10/24 06:03:49;;;;;;;31.13;12.65;;;7.80;99.90;;;;;;5055298;28;20045;-72
2021/10/24 06:06:14;;;;;;;33.60;13.43;;;7.80;99.90;;;;;;5055026;28;20059;-72
2021/10/24 06:08:41;;;;;;;25.30;12.10;;;7.80;99.90;;;;;;5055922;28;20071;-72
2021/10/24 06:11:14;;;;;;;39.65;12.15;;;7.80;99.90;;;;;;5055271;28;20037;-72
2021/10/24 06:13:43;;;;;;;24.25;12.00;;;7.80;99.90;;;;;;5035425;28;20388;-72
2021/10/24 06:16:09;;;;;;;28.15;11.15;;;7.80;99.90;;;;;;5039873;28;20049;-72
2021/10/24 06:18:36;;;;;;;28.08;12.45;;;7.90;99.90;;;;;;5055014;28;20531;-72
2021/10/24 06:21:03;;;;;;;33.63;12.32;;;7.80;99.90;;;;;;5054930;28;20443;-72
2021/10/24 06:23:28;;;;;;;31.77;11.93;;;7.80;99.90;;;;;;5055020;28;20020;-72
2021/10/24 06:25:54;;;;;;;29.52;12.02;;;7.80;99.90;;;;;;5055390;28;20033;-72
2021/10/24 06:28:19;;;;;;;24.52;10.27;;;7.80;99.90;;;;;;5055184;28;20037;-73
2021/10/24 06:30:45;;;;;;;25.20;10.57;;;7.80;99.90;;;;;;5054803;28;20104;-72
2021/10/24 06:33:10;;;;;;;25.00;11.20;;;7.70;99.90;;;;;;5055002;28;20472;-72
2021/10/24 06:35:36;;;;;;;25.13;11.35;;;7.70;99.90;;;;;;5055250;28;20082;-72
2021/10/24 06:38:02;;;;;;;27.10;10.57;;;7.70;99.90;;;;;;5054322;28;20033;-72
2021/10/24 06:40:27;;;;;;;25.60;11.18;;;7.80;99.90;;;;;;5054601;28;20094;-72
2021/10/24 06:42:53;;;;;;;19.98;8.68;;;7.80;99.90;;;;;;5054984;28;20032;-72
2021/10/24 06:45:19;;;;;;;25.75;9.10;;;7.80;99.90;;;;;;5055038;28;20029;-72
2021/10/24 06:47:47;;;;;;;23.40;9.50;;;7.80;99.90;;;;;;5054453;28;20027;-72
2021/10/24 06:50:12;;;;;;;21.50;9.25;;;7.80;99.90;;;;;;5054409;28;20025;-72
2021/10/24 06:52:38;;;;;;;25.67;9.02;;;7.80;99.90;;;;;;5054957;28;20035;-72
2021/10/24 06:55:04;;;;;;;28.55;10.15;;;7.90;99.90;;;;;;5054558;28;20013;-72
2021/10/24 06:57:30;;;;;;;25.52;8.98;;;7.90;99.90;;;;;;5055157;28;20029;-72
2021/10/24 06:59:56;;;;;;;20.15;8.02;;;7.90;99.90;;;;;;5053972;28;20028;-72
2021/10/24 07:02:21;;;;;;;25.75;8.80;;;7.90;99.90;;;;;;5054988;28;20029;-72
2021/10/24 07:04:47;;;;;;;24.40;8.38;;;7.90;99.90;;;;;;5054485;28;20369;-72
2021/10/24 07:07:12;;;;;;;25.60;8.18;;;8.00;99.90;;;;;;5054926;28;20495;-72
2021/10/24 07:09:38;;;;;;;25.40;8.15;;;8.00;99.90;;;;;;5054102;28;20033;-72
2021/10/24 07:12:04;;;;;;;18.13;8.02;;;7.90;99.90;;;;;;5054597;28;20075;-72
2021/10/24 07:14:29;;;;;;;20.80;7.55;;;7.90;99.90;;;;;;5053947;28;20044;-72
2021/10/24 07:16:56;;;;;;;26.70;8.02;;;7.90;99.90;;;;;;5054371;28;20084;-72
2021/10/24 07:19:22;;;;;;;29.95;7.63;;;7.90;99.90;;;;;;5053975;28;20053;-72
2021/10/24 07:21:48;;;;;;;21.27;7.03;;;7.90;99.90;;;;;;5054217;28;20032;-72
2021/10/24 07:24:13;;;;;;;23.02;8.65;;;7.80;99.90;;;;;;5054065;28;20028;-72
2021/10/24 07:26:40;;;;;;;20.65;7.25;;;7.80;99.90;;;;;;5054137;28;20055;-72
2021/10/24 07:29:05;;;;;;;23.52;8.55;;;7.70;99.90;;;;;;5053029;28;20032;-72
2021/10/24 07:31:31;;;;;;;30.67;7.85;;;7.60;99.90;;;;;;5053829;28;20025;-73
2021/10/24 07:33:58;;;;;;;27.55;8.00;;;7.50;99.90;;;;;;5054026;28;20045;-72
2021/10/24 07:36:23;;;;;;;33.03;8.48;;;7.40;99.90;;;;;;5054136;28;20104;-73
2021/10/24 07:38:49;;;;;;;21.55;8.07;;;7.30;99.90;;;;;;5053752;28;20033;-73
2021/10/24 07:41:15;;;;;;;29.58;7.55;;;7.30;99.90;;;;;;5053853;28;20033;-73
2021/10/24 07:43:40;;;;;;;24.48;8.07;;;7.30;99.90;;;;;;5053820;28;20025;-72
2021/10/24 07:46:06;;;;;;;23.48;7.97;;;7.30;99.90;;;;;;5053683;28;20476;-73
2021/10/24 07:48:32;;;;;;;13.98;6.72;;;7.40;99.90;;;;;;5053681;28;20472;-73
2021/10/24 07:50:58;;;;;;;24.17;7.25;;;7.40;99.90;;;;;;5053705;28;20051;-73
2021/10/24 07:53:26;;;;;;;21.77;6.90;;;7.50;99.90;;;;;;5053454;28;20060;-73
2021/10/24 07:55:54;;;;;;;21.10;7.32;;;7.60;99.90;;;;;;5053062;28;20009;-73
2021/10/24 07:58:20;;;;;;;24.38;6.97;;;7.80;99.90;;;;;;5053341;28;20484;-72
2021/10/24 08:00:48;;;;;;;20.13;7.25;;;8.00;99.90;;;;;;5053502;28;20036;-72
2021/10/24 08:03:14;;;;;;;17.90;6.80;;;8.10;99.90;;;;;;5053219;28;20025;-72
2021/10/24 08:05:39;;;;;;;15.45;6.43;;;8.20;99.90;;;;;;5053111;28;20452;-72
2021/10/24 08:08:05;;;;;;;18.60;6.43;;;8.30;99.90;;;;;;5052989;28;20036;-72
2021/10/24 08:10:30;;;;;;;16.27;6.00;;;8.30;99.90;;;;;;5053350;28;20465;-72
2021/10/24 08:12:56;;;;;;;21.58;6.95;;;8.40;99.90;;;;;;5052552;28;20099;-72
2021/10/24 08:15:21;;;;;;;15.88;6.60;;;8.50;99.90;;;;;;5052171;28;20108;-72
2021/10/24 08:17:48;;;;;;;18.58;7.05;;;8.60;99.90;;;;;;5052982;28;20090;-72
2021/10/24 08:20:15;;;;;;;20.23;6.75;;;8.60;99.90;;;;;;5053650;28;20032;-72
2021/10/24 08:22:41;;;;;;;21.45;6.65;;;8.70;99.90;;;;;;5052429;28;20064;-73
2021/10/24 08:25:07;;;;;;;21.45;6.68;;;8.70;99.90;;;;;;5053349;28;20024;-72
2021/10/24 08:27:33;;;;;;;17.25;5.35;;;8.80;99.90;;;;;;5053207;28;20017;-73
2021/10/24 08:30:00;;;;;;;30.67;6.32;;;9.00;99.90;;;;;;5052786;28;20024;-72
2021/10/24 08:32:26;;;;;;;14.02;6.53;;;9.10;99.90;;;;;;5052892;28;20025;-72
2021/10/24 08:34:51;;;;;;;18.05;6.03;;;9.30;99.90;;;;;;5034945;28;20369;-72
2021/10/24 08:37:19;;;;;;;18.30;5.18;;;9.40;99.90;;;;;;5052068;28;20043;-72
2021/10/24 08:39:48;;;;;;;15.63;6.00;;;9.50;99.90;;;;;;5052583;28;20021;-72
2021/10/24 08:42:16;;;;;;;19.95;5.95;;;9.50;99.90;;;;;;5053104;28;20052;-74
2021/10/24 08:44:42;;;;;;;16.13;5.88;;;9.60;99.90;;;;;;5052886;28;20029;-72
2021/10/24 08:47:08;;;;;;;16.63;5.45;;;9.70;99.90;;;;;;5051309;28;20031;-72
2021/10/24 08:49:33;;;;;;;20.23;6.55;;;9.80;99.90;;;;;;5052600;28;20484;-73
2021/10/24 08:52:02;;;;;;;16.15;6.80;;;9.90;99.90;;;;;;5052917;28;20029;-72
2021/10/24 08:54:28;;;;;;;18.40;5.80;;;10.00;99.90;;;;;;5052606;28;20029;-72
2021/10/24 08:56:55;;;;;;;15.50;6.05;;;10.10;99.90;;;;;;5052035;28;20029;-72
2021/10/24 08:59:21;;;;;;;23.35;6.85;;;10.20;99.90;;;;;;5053037;28;20033;-72
2021/10/24 09:01:54;;;;;;;14.93;5.97;;;10.30;99.90;;;;;;5052813;28;20029;-72
2021/10/24 09:04:20;;;;;;;19.90;6.18;;;10.40;99.90;;;;;;5033172;28;20025;-72
2021/10/24 09:06:47;;;;;;;18.55;6.93;;;10.50;99.90;;;;;;5032330;28;20037;-72
2021/10/24 09:09:14;;;;;;;14.32;5.75;;;10.50;99.90;;;;;;5051905;28;20033;-72
2021/10/24 09:11:51;;;;;;;17.67;5.57;;;10.60;99.90;;;;;;5052721;28;20029;-72
2021/10/24 09:14:40;;;;;;;15.63;6.38;;;10.60;99.90;;;;;;5051873;28;20154;-72
2021/10/24 09:17:07;;;;;;;18.38;6.45;;;10.70;99.90;;;;;;5052371;28;20361;-72
2021/10/24 09:19:44;;;;;;;15.57;5.80;;;10.70;99.90;;;;;;5052706;28;20025;-72
2021/10/24 09:22:28;;;;;;;18.50;6.55;;;10.70;99.90;;;;;;5050565;28;20025;-72
2021/10/24 09:25:02;;;;;;;;;;;10.80;99.90;;;;;;5035028;28;20400;-72
2021/10/24 09:27:29;;;;;;;13.15;5.65;;;10.90;99.90;;;;;;5052149;28;19935;-72
2021/10/24 09:29:54;;;;;;;20.92;6.85;;;11.00;99.90;;;;;;5052656;28;20017;-72
2021/10/24 09:32:21;;;;;;;17.20;5.88;;;11.00;99.90;;;;;;5051752;28;20024;-72
2021/10/24 09:35:02;;;;;;;20.30;6.22;;;11.10;99.90;;;;;;5052597;28;20095;-72
2021/10/24 09:37:28;;;;;;;11.25;5.82;;;11.10;99.90;;;;;;5052479;28;20025;-72
2021/10/24 09:39:54;;;;;;;20.15;6.80;;;11.20;99.90;;;;;;5052554;28;20362;-72
2021/10/24 09:42:23;;;;;;;18.38;6.68;;;11.20;99.90;;;;;;5052376;28;20043;-72
2021/10/24 09:45:01;;;;;;;24.83;6.95;;;11.30;99.90;;;;;;5052053;28;20039;-72
2021/10/24 09:47:27;;;;;;;15.70;6.05;;;11.30;99.90;;;;;;5052657;28;20104;-72
2021/10/24 09:49:53;;;;;;;16.35;6.13;;;11.30;99.90;;;;;;5055570;28;20485;-72
2021/10/24 09:52:31;;;;;;;12.10;6.30;;;11.40;99.90;;;;;;5056096;28;20027;-72
2021/10/24 09:54:57;;;;;;;14.43;5.68;;;11.30;99.90;;;;;;5056063;28;20071;-72
2021/10/24 09:57:23;;;;;;;16.65;6.25;;;11.30;99.90;;;;;;5055246;28;20484;-72
2021/10/24 09:59:51;;;;;;;16.10;5.68;;;11.40;99.90;;;;;;5055959;28;20064;-72
2021/10/24 10:02:18;;;;;;;28.20;6.47;;;11.50;99.90;;;;;;5055728;28;20020;-72
2021/10/24 10:04:44;;;;;;;18.60;5.57;;;11.50;99.90;;;;;;5055439;28;20417;-72
2021/10/24 10:07:10;;;;;;;14.93;6.25;;;11.60;99.90;;;;;;5055894;28;20435;-72
2021/10/24 10:09:36;;;;;;;17.55;5.85;;;11.70;99.90;;;;;;5055561;28;20044;-72
2021/10/24 10:12:04;;;;;;;9.88;5.10;;;11.70;99.90;;;;;;5055592;28;20381;-72
2021/10/24 10:14:32;;;;;;;20.58;6.07;;;11.80;99.90;;;;;;5055614;28;20021;-72
2021/10/24 10:17:01;;;;;;;15.02;5.75;;;11.80;99.90;;;;;;5055414;28;20082;-72
2021/10/24 10:19:29;;;;;;;12.13;5.38;;;11.90;99.90;;;;;;5054859;28;20378;-72
2021/10/24 10:21:54;;;;;;;17.33;6.32;;;11.80;99.90;;;;;;5055451;28;20021;-72
2021/10/24 10:24:35;;;;;;;15.95;5.95;;;11.90;99.90;;;;;;5055527;28;20385;-72
2021/10/24 10:27:27;;;;;;;18.48;6.43;;;11.90;99.90;;;;;;5055131;28;20021;-72
2021/10/24 10:29:53;;;;;;;10.70;5.70;;;11.80;99.90;;;;;;5055465;28;20029;-72
2021/10/24 10:32:20;;;;;;;14.52;5.72;;;11.80;99.90;;;;;;5055389;28;20075;-72
2021/10/24 10:34:58;;;;;;;16.58;6.00;;;11.90;99.90;;;;;;5055617;28;20028;-72
2021/10/24 10:37:52;;;;;;;17.83;5.93;;;11.90;99.90;;;;;;5055297;28;20066;-71
2021/10/24 10:40:22;;;;;;;19.33;5.68;;;12.00;99.90;;;;;;5054361;28;20032;-72
2021/10/24 10:42:49;;;;;;;15.50;6.20;;;12.10;99.90;;;;;;5055051;28;20029;-72
2021/10/24 10:45:14;;;;;;;12.80;5.43;;;12.30;99.90;;;;;;5037254;28;20503;-72
2021/10/24 10:47:52;;;;;;;16.10;6.22;;;12.40;99.90;;;;;;5054876;28;20025;-72
2021/10/24 10:50:30;;;;;;;14.75;5.70;;;12.40;99.90;;;;;;5055003;28;20025;-72
2021/10/24 10:52:57;;;;;;;15.10;5.65;;;12.50;99.90;;;;;;5054912;28;20138;-72
2021/10/24 10:55:25;;;;;;;13.65;5.75;;;12.60;99.90;;;;;;5054299;28;20450;-72
2021/10/24 10:57:51;;;;;;;18.45;7.03;;;12.60;99.90;;;;;;5054684;28;20057;-72
2021/10/24 11:00:38;;;;;;;13.80;6.57;;;12.70;99.90;;;;;;5054616;28;20036;-72
2021/10/24 11:03:04;;;;;;;26.02;6.63;;;12.80;99.90;;;;;;5054825;28;20025;-72
2021/10/24 11:05:37;;;;;;;19.08;7.90;;;12.90;99.90;;;;;;5054714;28;20035;-72
2021/10/24 11:08:03;;;;;;;17.35;7.60;;;13.00;99.90;;;;;;5054367;28;20029;-72
2021/10/24 11:10:46;;;;;;;16.98;7.40;;;13.10;99.90;;;;;;5053939;28;20078;-72
2021/10/24 11:13:31;;;;;;;19.02;6.75;;;13.30;99.90;;;;;;5054798;28;20025;-72
2021/10/24 11:16:32;;;;;;;13.77;6.93;;;13.20;99.90;;;;;;5054396;28;20492;-72
2021/10/24 11:18:59;;;;;;;17.85;7.35;;;13.30;99.90;;;;;;4973845;28;20041;-72
2021/10/24 11:21:26;;;;;;;8.13;5.28;;;13.30;99.90;;;;;;5037664;28;20044;-72
2021/10/24 11:23:58;;;;;;;13.73;5.35;;;13.40;99.90;;;;;;5055220;28;20035;-72
2021/10/24 11:26:24;;;;;;;9.35;4.90;;;13.40;99.90;;;;;;5054261;28;20025;-72
2021/10/24 11:28:50;;;;;;;16.80;4.60;;;13.40;99.90;;;;;;5054118;28;20037;-72
2021/10/24 11:31:19;;;;;;;10.30;4.30;;;13.50;99.90;;;;;;5053576;28;20023;-72
2021/10/24 11:33:49;;;;;;;12.88;4.53;;;13.60;99.90;;;;;;5053515;28;20380;-72
2021/10/24 11:36:26;;;;;;;11.43;5.00;;;13.60;99.90;;;;;;5054192;28;20104;-72
2021/10/24 11:39:00;;;;;;;17.48;4.53;;;13.70;99.90;;;;;;5053809;28;20472;-72
2021/10/24 11:41:26;;;;;;;13.15;4.95;;;13.80;99.90;;;;;;5053693;28;20064;-72
2021/10/24 11:44:09;;;;;;;15.25;5.20;;;13.80;99.90;;;;;;5053861;28;20591;-72
2021/10/24 11:46:36;;;;;;;16.60;4.88;;;13.70;99.90;;;;;;5053746;28;20047;-72
2021/10/24 11:49:04;;;;;;;11.45;4.35;;;13.60;99.90;;;;;;5054080;28;20040;-73
2021/10/24 11:51:32;;;;;;;9.25;4.43;;;13.60;99.90;;;;;;5053203;28;20484;-72
2021/10/24 11:53:58;;;;;;;12.07;4.35;;;13.70;99.90;;;;;;5053794;28;20032;-73
2021/10/24 12:01:25;;;;;;;13.38;4.32;;;14.20;99.90;;;;;;5053783;28;20029;-72
2021/10/24 12:04:05;;;;;;;9.25;3.60;;;14.20;99.90;;;;;;5053760;28;20027;-73
2021/10/24 12:06:48;;;;;;;8.07;4.30;;;14.20;99.90;;;;;;5053125;28;20472;-72
2021/10/24 12:09:24;;;;;;;15.27;4.18;;;14.20;99.90;;;;;;5053470;28;20590;-73
2021/10/24 12:11:49;;;;;;;18.50;4.35;;;14.20;99.90;;;;;;5052442;28;20061;-73
2021/10/24 12:14:15;;;;;;;8.55;4.10;;;14.40;99.90;;;;;;5076728;22;20146;-67
2021/10/24 12:16:45;;;;;;;11.93;4.13;;;14.30;99.90;;;;;;5053629;28;20029;-68
2021/10/24 12:19:25;;;;;;;16.50;4.47;;;14.30;99.90;;;;;;5053706;28;20481;-68
2021/10/24 12:22:06;;;;;;;7.95;3.20;;;14.80;99.90;;;;;;5053386;28;20035;-68
2021/10/24 12:24:48;;;;;;;9.25;3.58;;;14.90;99.90;;;;;;5052998;28;20102;-68
2021/10/24 12:27:31;;;;;;;13.65;4.75;;;15.50;99.90;;;;;;5053519;28;20025;-68
2021/10/24 12:30:01;;;;;;;8.25;4.43;;;15.70;99.90;;;;;;5053598;28;20029;-68
2021/10/24 12:32:27;;;;;;;12.77;4.57;;;16.00;99.90;;;;;;5053105;28;20021;-68
2021/10/24 12:35:02;;;;;;;17.92;4.55;;;16.30;99.90;;;;;;5035294;28;20021;-68
2021/10/24 12:37:29;;;;;;;9.18;4.20;;;16.30;99.90;;;;;;5052632;28;20024;-67
2021/10/24 12:40:18;;;;;;;12.32;4.40;;;16.40;99.90;;;;;;5053090;28;20021;-68
2021/10/24 12:42:59;;;;;;;16.65;4.50;;;16.50;99.90;;;;;;5053184;28;20033;-68
2021/10/24 12:45:25;;;;;;;12.10;4.65;;;17.10;99.90;;;;;;5052999;28;20029;-68
2021/10/24 12:47:59;;;;;;;11.23;5.40;;;16.90;99.90;;;;;;5052920;28;20036;-68
2021/10/24 12:50:29;;;;;;;14.63;4.50;;;17.10;99.90;;;;;;5052991;28;20025;-68